Time;durP1;ratioP1;P1;durP2;ratioP2;P2;SDS_P1;SDS_P2;PMS_P1;PMS_P2;Temp;Humidity;BMP_temperature;BMP_pressure;BME280_temperature;BME280_humidity;BME280_pressure;Samples;Min_cycle;Max_cycle;Signal;HPM_P1;HPM_P2
2023/08/24 00:01:48;;;;;;;4.65;2.50;;;25.80;65.40;;;;;;5072015;28;20044;-66
2023/08/24 00:04:14;;;;;;;1.98;1.52;;;25.80;65.10;;;;;;5073018;28;20436;-61
2023/08/24 00:06:40;;;;;;;3.65;2.42;;;25.80;65.10;;;;;;5071253;28;20036;-61
2023/08/24 00:09:06;;;;;;;2.20;1.17;;;25.80;65.30;;;;;;5073148;28;20033;-62
2023/08/24 00:11:32;;;;;;;1.80;1.17;;;25.80;65.30;;;;;;5071759;28;20049;-66
2023/08/24 00:13:59;;;;;;;4.20;1.17;;;25.90;65.40;;;;;;5072760;28;20521;-65
2023/08/24 00:16:25;;;;;;;2.08;1.58;;;25.90;65.30;;;;;;5072224;28;20064;-62
2023/08/24 00:18:51;;;;;;;3.92;1.95;;;25.90;65.40;;;;;;5071428;28;20143;-61
2023/08/24 00:21:19;;;;;;;2.42;1.05;;;25.90;65.40;;;;;;5069942;28;20047;-66
2023/08/24 00:23:45;;;;;;;4.10;2.00;;;25.90;65.50;;;;;;5072456;28;20055;-66
2023/08/24 00:26:11;;;;;;;2.67;1.20;;;25.90;65.60;;;;;;5072143;28;20047;-66
2023/08/24 00:28:37;;;;;;;1.73;1.00;;;25.90;65.80;;;;;;5072395;28;20056;-62
2023/08/24 00:31:03;;;;;;;2.88;1.33;;;25.90;65.70;;;;;;5069392;28;20047;-66
2023/08/24 00:33:29;;;;;;;2.00;1.23;;;26.00;66.30;;;;;;5072336;28;20029;-65
2023/08/24 00:36:18;;;;;;;2.97;1.25;;;26.00;66.20;;;;;;5053600;28;20052;-66
2023/08/24 00:38:45;;;;;;;1.35;0.82;;;26.00;66.10;;;;;;5072304;28;20029;-61
2023/08/24 00:41:12;;;;;;;2.20;1.38;;;26.00;66.20;;;;;;5069986;28;20033;-66
2023/08/24 00:43:38;;;;;;;0.70;0.50;;;25.90;65.80;;;;;;5072048;28;20108;-66
2023/08/24 00:46:04;;;;;;;2.60;1.30;;;25.90;66.10;;;;;;5070448;28;20594;-66
2023/08/24 00:48:31;;;;;;;1.10;0.70;;;25.90;66.10;;;;;;5054211;28;20029;-66
2023/08/24 00:51:16;;;;;;;3.67;1.25;;;25.80;66.00;;;;;;5069615;28;20112;-62
2023/08/24 00:53:42;;;;;;;1.42;0.70;;;25.80;66.20;;;;;;5072100;28;20032;-65
2023/08/24 00:56:09;;;;;;;2.70;1.25;;;25.80;66.20;;;;;;5071460;28;20123;-62
2023/08/24 00:58:35;;;;;;;1.23;0.73;;;25.80;66.10;;;;;;5071858;28;20049;-62
2023/08/24 01:01:01;;;;;;;3.42;1.35;;;25.70;65.70;;;;;;5052772;28;20046;-66
2023/08/24 01:03:27;;;;;;;1.67;1.05;;;25.70;65.90;;;;;;5070476;28;20025;-65
2023/08/24 01:05:53;;;;;;;2.25;1.30;;;25.70;66.50;;;;;;5071779;28;20037;-61
2023/08/24 01:08:21;;;;;;;2.28;1.50;;;25.60;66.60;;;;;;5071668;28;20036;-62
2023/08/24 01:11:43;;;;;;;2.30;1.45;;;25.60;66.30;;;;;;5069546;28;20039;-66
2023/08/24 01:15:05;;;;;;;1.48;0.77;;;25.50;66.70;;;;;;5071727;28;20393;-62
2023/08/24 01:17:32;;;;;;;0.85;0.57;;;25.50;66.70;;;;;;5071636;28;20066;-66
2023/08/24 01:19:59;;;;;;;0.82;0.70;;;25.50;66.60;;;;;;5070700;28;20040;-61
2023/08/24 01:23:02;;;;;;;1.50;1.05;;;25.50;66.50;;;;;;5069540;28;20111;-61
2023/08/24 01:25:53;;;;;;;2.05;1.02;;;25.50;66.50;;;;;;5071256;28;20040;-62
2023/08/24 01:28:21;;;;;;;2.45;1.40;;;25.40;67.00;;;;;;5070402;28;20035;-62
2023/08/24 01:30:48;;;;;;;6.63;1.60;;;25.40;66.90;;;;;;5069202;28;20501;-61
2023/08/24 01:33:14;;;;;;;2.25;1.05;;;25.40;67.20;;;;;;5070389;28;20029;-61
2023/08/24 01:35:42;;;;;;;2.30;1.25;;;25.30;66.50;;;;;;5070978;28;20060;-61
2023/08/24 01:38:12;;;;;;;0.95;0.52;;;25.30;67.00;;;;;;5070270;28;20040;-66
2023/08/24 01:41:16;;;;;;;3.05;1.75;;;25.30;67.20;;;;;;5069528;28;20540;-61
2023/08/24 01:43:46;;;;;;;1.90;0.73;;;25.20;67.40;;;;;;5074970;28;20039;-66
2023/08/24 01:46:16;;;;;;;3.45;1.60;;;25.00;67.50;;;;;;5074129;28;20393;-63
2023/08/24 01:48:44;;;;;;;1.45;0.85;;;25.00;67.50;;;;;;5074390;28;20389;-61
2023/08/24 01:51:10;;;;;;;1.38;0.80;;;24.90;67.70;;;;;;5074604;28;20383;-66
2023/08/24 01:53:38;;;;;;;4.65;1.30;;;24.80;67.20;;;;;;5074232;28;20236;-66
2023/08/24 01:56:12;;;;;;;1.88;1.17;;;24.70;68.20;;;;;;5073740;28;20082;-66
2023/08/24 01:58:39;;;;;;;2.47;0.57;;;24.70;68.30;;;;;;5075215;28;20072;-66
2023/08/24 02:01:07;;;;;;;2.63;1.77;;;24.70;68.20;;;;;;5072953;28;20152;-66
2023/08/24 02:03:34;;;;;;;2.88;1.42;;;24.70;68.20;;;;;;5074013;28;20036;-62
2023/08/24 02:06:00;;;;;;;1.70;1.10;;;24.80;68.30;;;;;;5074756;28;20120;-61
2023/08/24 02:08:26;;;;;;;3.60;1.75;;;24.80;68.40;;;;;;5073838;28;20048;-62
2023/08/24 02:10:53;;;;;;;3.92;2.67;;;24.70;68.20;;;;;;5073838;28;20086;-61
2023/08/24 02:13:19;;;;;;;2.65;1.17;;;24.80;68.50;;;;;;5075063;28;20032;-61
2023/08/24 02:15:45;;;;;;;1.15;0.68;;;24.80;68.60;;;;;;5074627;28;20041;-62
2023/08/24 02:18:11;;;;;;;1.23;0.82;;;24.80;68.70;;;;;;5074939;28;20036;-66
2023/08/24 02:20:55;;;;;;;2.35;1.60;;;24.80;68.70;;;;;;5073699;28;20032;-61
2023/08/24 02:23:21;;;;;;;2.97;1.20;;;24.80;69.00;;;;;;5074815;28;20029;-66
2023/08/24 02:25:47;;;;;;;1.92;1.35;;;24.80;69.00;;;;;;5074596;28;20397;-66
2023/08/24 02:28:14;;;;;;;2.15;1.23;;;24.70;69.10;;;;;;5074559;28;20032;-66
2023/08/24 02:30:39;;;;;;;18.45;1.58;;;24.70;69.20;;;;;;5073864;28;20071;-66
2023/08/24 02:33:06;;;;;;;1.52;1.20;;;24.70;69.50;;;;;;5073381;28;20036;-62
2023/08/24 02:35:32;;;;;;;2.00;0.98;;;24.70;69.70;;;;;;5073760;28;20093;-66
2023/08/24 02:37:58;;;;;;;2.65;2.03;;;24.70;70.00;;;;;;5074858;28;20048;-66
2023/08/24 02:40:24;;;;;;;2.95;1.45;;;24.60;70.10;;;;;;5055531;28;20401;-66
2023/08/24 02:42:50;;;;;;;2.78;1.83;;;24.60;70.30;;;;;;5074526;28;20436;-66
2023/08/24 02:45:16;;;;;;;2.50;1.52;;;24.50;70.40;;;;;;5072692;28;20052;-61
2023/08/24 02:47:42;;;;;;;1.42;1.17;;;24.50;70.60;;;;;;5073141;28;20032;-61
2023/08/24 02:50:09;;;;;;;2.60;1.58;;;24.50;70.60;;;;;;5073400;28;20242;-62
2023/08/24 02:52:35;;;;;;;3.25;1.48;;;24.40;70.20;;;;;;5074293;28;20039;-62
2023/08/24 02:55:01;;;;;;;3.67;1.98;;;24.50;70.50;;;;;;5073461;28;20032;-62
2023/08/24 02:57:27;;;;;;;1.55;1.02;;;24.50;70.60;;;;;;5072448;28;20077;-61
2023/08/24 02:59:54;;;;;;;3.22;1.17;;;24.50;70.50;;;;;;5074047;28;20028;-61
2023/08/24 03:02:20;;;;;;;4.57;1.75;;;24.50;70.60;;;;;;5073017;28;20029;-66
2023/08/24 03:04:46;;;;;;;5.25;2.40;;;24.50;70.70;;;;;;5072975;28;20024;-62
2023/08/24 03:07:12;;;;;;;2.33;1.20;;;24.50;70.70;;;;;;5073517;28;20378;-65
2023/08/24 03:09:38;;;;;;;3.20;2.38;;;24.50;70.70;;;;;;5072782;28;20037;-66
2023/08/24 03:12:04;;;;;;;1.73;1.10;;;24.50;70.80;;;;;;5071518;28;20048;-61
2023/08/24 03:14:30;;;;;;;1.65;1.33;;;24.40;70.10;;;;;;5072745;28;20107;-65
2023/08/24 03:16:56;;;;;;;4.35;1.85;;;24.40;70.40;;;;;;5072074;28;20033;-61
2023/08/24 03:19:22;;;;;;;3.95;1.17;;;24.40;70.30;;;;;;5073836;28;20317;-66
2023/08/24 03:21:48;;;;;;;2.30;1.80;;;24.30;70.30;;;;;;5072709;28;20611;-66
2023/08/24 03:24:15;;;;;;;1.33;0.85;;;24.30;70.30;;;;;;5073742;28;20040;-66
2023/08/24 03:26:41;;;;;;;2.00;1.20;;;24.30;70.30;;;;;;5072202;28;20293;-66
2023/08/24 03:29:07;;;;;;;2.83;1.25;;;24.30;70.30;;;;;;5072438;28;20029;-66
2023/08/24 03:31:33;;;;;;;0.88;0.50;;;24.20;70.20;;;;;;5072824;28;20456;-61
2023/08/24 03:33:59;;;;;;;2.80;2.28;;;24.20;70.90;;;;;;5073645;28;20036;-66
2023/08/24 03:36:25;;;;;;;2.00;1.45;;;24.30;70.00;;;;;;5072836;28;20057;-66
2023/08/24 03:38:51;;;;;;;1.30;0.88;;;24.20;70.00;;;;;;5073660;28;20037;-61
2023/08/24 03:41:17;;;;;;;1.27;0.95;;;24.20;70.00;;;;;;5072234;28;20043;-66
2023/08/24 03:43:43;;;;;;;2.58;1.63;;;24.20;70.20;;;;;;5073416;28;20032;-66
2023/08/24 03:46:09;;;;;;;3.03;2.08;;;24.20;70.10;;;;;;5073078;28;20416;-62
2023/08/24 03:48:35;;;;;;;1.65;0.75;;;24.20;70.10;;;;;;5073156;28;20043;-66
2023/08/24 03:51:01;;;;;;;1.27;0.85;;;24.10;69.50;;;;;;5070781;28;20037;-61
2023/08/24 03:53:27;;;;;;;1.48;1.02;;;24.20;70.10;;;;;;5073050;28;20093;-61
2023/08/24 03:55:54;;;;;;;1.33;0.75;;;24.10;70.20;;;;;;5072827;28;20111;-66
2023/08/24 03:58:21;;;;;;;1.70;1.10;;;24.00;69.70;;;;;;5072851;28;20037;-61
2023/08/24 04:00:47;;;;;;;1.33;0.93;;;24.00;69.50;;;;;;5071951;28;20559;-66
2023/08/24 04:03:13;;;;;;;3.00;1.42;;;24.00;70.00;;;;;;5073087;28;20025;-62
2023/08/24 04:05:39;;;;;;;1.20;1.00;;;24.00;69.90;;;;;;5071756;28;20079;-62
2023/08/24 04:08:07;;;;;;;1.23;0.88;;;23.90;69.90;;;;;;5072754;28;20094;-66
2023/08/24 04:10:33;;;;;;;2.40;1.02;;;23.90;69.90;;;;;;5071697;28;20045;-67
2023/08/24 04:12:59;;;;;;;1.48;0.70;;;23.90;70.10;;;;;;5072820;28;20028;-62
2023/08/24 04:15:25;;;;;;;1.25;1.00;;;23.90;70.20;;;;;;5054299;28;20048;-67
2023/08/24 04:17:52;;;;;;;1.10;0.98;;;23.90;70.30;;;;;;5072597;28;20033;-62
2023/08/24 04:20:18;;;;;;;0.60;0.60;;;23.90;70.20;;;;;;5070159;28;20481;-66
2023/08/24 04:22:44;;;;;;;0.85;0.52;;;23.90;70.30;;;;;;5072541;28;20039;-62
2023/08/24 04:25:10;;;;;;;1.23;0.90;;;23.90;70.40;;;;;;5071848;28;20044;-61
2023/08/24 04:27:37;;;;;;;0.73;0.52;;;23.90;70.30;;;;;;5071105;28;20028;-66
2023/08/24 04:30:03;;;;;;;3.15;1.42;;;23.90;69.50;;;;;;5072484;28;20040;-66
2023/08/24 04:32:32;;;;;;;4.55;1.45;;;23.90;69.60;;;;;;5070413;28;20040;-62
2023/08/24 04:34:58;;;;;;;1.42;0.90;;;23.90;70.00;;;;;;5071167;28;20028;-62
2023/08/24 04:37:24;;;;;;;1.52;1.20;;;23.90;70.10;;;;;;5071828;28;20559;-66
2023/08/24 04:39:50;;;;;;;2.25;1.55;;;23.90;70.00;;;;;;5072115;28;20485;-61
2023/08/24 04:42:16;;;;;;;1.08;0.70;;;23.90;70.30;;;;;;5071267;28;20052;-62
2023/08/24 04:44:42;;;;;;;1.25;0.75;;;24.00;70.40;;;;;;5072794;28;20081;-66
2023/08/24 04:47:08;;;;;;;1.23;0.70;;;24.00;70.40;;;;;;5072098;28;20035;-66
2023/08/24 04:49:37;;;;;;;1.15;1.05;;;24.00;70.40;;;;;;5072093;28;20036;-62
2023/08/24 04:52:03;;;;;;;1.17;0.95;;;23.90;69.70;;;;;;5070004;28;20459;-61
2023/08/24 04:54:29;;;;;;;3.30;1.67;;;24.00;69.60;;;;;;5070782;28;20028;-66
2023/08/24 04:56:55;;;;;;;1.20;0.95;;;24.00;70.20;;;;;;5071632;28;20481;-62
2023/08/24 04:59:21;;;;;;;;;;;24.00;70.20;;;;;;5072564;28;20044;-67
2023/08/24 05:01:47;;;;;;;1.23;0.98;;;24.10;70.10;;;;;;5070937;28;20400;-62
2023/08/24 05:04:13;;;;;;;;;;;24.10;70.20;;;;;;5072447;28;20420;-61
2023/08/24 05:06:39;;;;;;;3.08;0.90;;;24.10;70.00;;;;;;5070103;28;19916;-62
2023/08/24 05:09:06;;;;;;;1.15;0.80;;;24.10;69.70;;;;;;5070535;28;20444;-66
2023/08/24 05:11:32;;;;;;;2.42;1.10;;;24.10;70.60;;;;;;5070457;28;20041;-66
2023/08/24 05:13:58;;;;;;;3.70;2.13;;;24.10;71.30;;;;;;5070502;28;20028;-65
2023/08/24 05:16:24;;;;;;;3.33;2.38;;;24.20;71.10;;;;;;5062110;28;20033;-66
2023/08/24 05:18:50;;;;;;;1.02;0.75;;;24.20;70.90;;;;;;5059252;28;20052;-66
2023/08/24 05:21:16;;;;;;;1.17;1.00;;;24.30;70.80;;;;;;5050467;28;20098;-61
2023/08/24 05:23:42;;;;;;;4.70;1.17;;;24.40;71.00;;;;;;5050302;28;20029;-62
2023/08/24 05:26:08;;;;;;;1.60;0.90;;;24.40;70.80;;;;;;5051321;28;20033;-62
2023/08/24 05:28:34;;;;;;;1.50;0.85;;;24.50;71.10;;;;;;5051625;28;20475;-62
2023/08/24 05:31:00;;;;;;;2.60;1.85;;;24.50;71.10;;;;;;5049493;28;20040;-62
2023/08/24 05:33:27;;;;;;;2.05;1.25;;;24.60;71.10;;;;;;5051526;28;20029;-63
2023/08/24 05:35:53;;;;;;;2.70;1.60;;;24.60;71.00;;;;;;5056663;28;20054;-66
2023/08/24 05:38:20;;;;;;;0.85;0.70;;;24.70;71.00;;;;;;5056051;28;20052;-62
2023/08/24 05:41:05;;;;;;;2.28;1.00;;;24.70;71.40;;;;;;5059100;28;20040;-66
2023/08/24 05:43:31;;;;;;;1.67;1.13;;;24.80;71.60;;;;;;5063735;28;20036;-66
2023/08/24 05:45:57;;;;;;;2.08;1.30;;;24.80;71.70;;;;;;5058355;28;20037;-61
2023/08/24 05:48:23;;;;;;;2.40;1.63;;;24.70;72.40;;;;;;5063861;28;20041;-62
2023/08/24 05:50:49;;;;;;;1.63;1.08;;;24.70;72.50;;;;;;5061695;28;20547;-61
2023/08/24 05:53:15;;;;;;;2.55;1.40;;;24.70;73.20;;;;;;5061020;28;20037;-61
2023/08/24 05:55:41;;;;;;;;;;;24.80;72.20;;;;;;5056988;28;20526;-66
2023/08/24 05:58:08;;;;;;;2.72;1.48;;;24.80;72.10;;;;;;5059852;28;20022;-62
2023/08/24 06:00:34;;;;;;;1.77;1.27;;;24.70;72.80;;;;;;5054029;28;20071;-66
2023/08/24 06:03:00;;;;;;;3.85;1.65;;;24.70;73.60;;;;;;5053195;28;20112;-66
2023/08/24 06:05:26;;;;;;;1.45;1.05;;;24.70;74.00;;;;;;5056639;28;20791;-66
2023/08/24 06:07:52;;;;;;;1.92;1.17;;;24.80;73.90;;;;;;5057516;28;20044;-66
2023/08/24 06:10:18;;;;;;;3.65;1.55;;;24.90;74.00;;;;;;5060832;28;20044;-61
2023/08/24 06:12:44;;;;;;;3.33;1.85;;;25.00;74.80;;;;;;5058552;28;20025;-65
2023/08/24 06:15:13;;;;;;;4.78;1.42;;;25.10;73.60;;;;;;5057944;28;20520;-61
2023/08/24 06:17:39;;;;;;;1.55;0.85;;;25.20;73.10;;;;;;5057963;28;20128;-66
2023/08/24 06:20:06;;;;;;;3.65;1.45;;;25.40;72.40;;;;;;5057912;28;20044;-61
2023/08/24 06:22:32;;;;;;;1.90;0.80;;;25.50;71.60;;;;;;5068558;28;20029;-62
2023/08/24 06:25:00;;;;;;;2.67;1.98;;;25.60;71.10;;;;;;5052716;28;20111;-61
2023/08/24 06:27:26;;;;;;;1.83;1.05;;;25.80;70.80;;;;;;5060024;28;20440;-66
2023/08/24 06:29:52;;;;;;;2.53;1.55;;;25.90;69.90;;;;;;5059933;28;20035;-62
2023/08/24 06:32:18;;;;;;;2.08;1.55;;;26.00;70.30;;;;;;5064276;28;20032;-66
2023/08/24 06:34:44;;;;;;;4.47;1.77;;;26.20;70.60;;;;;;5071656;28;20078;-62
2023/08/24 06:37:11;;;;;;;3.78;1.58;;;26.30;70.00;;;;;;5066336;28;20424;-66
2023/08/24 06:39:37;;;;;;;2.15;1.45;;;26.40;69.50;;;;;;5058022;28;20508;-62
2023/08/24 06:42:03;;;;;;;2.38;2.13;;;26.50;69.10;;;;;;5063153;28;20049;-66
2023/08/24 06:44:29;;;;;;;1.60;0.93;;;26.60;68.10;;;;;;5068878;28;20103;-61
2023/08/24 06:46:55;;;;;;;1.13;0.88;;;26.70;68.20;;;;;;5063417;28;20393;-66
2023/08/24 06:49:21;;;;;;;1.50;0.88;;;26.80;67.90;;;;;;5057585;28;20116;-63
2023/08/24 06:51:47;;;;;;;1.58;1.40;;;26.90;67.50;;;;;;5042563;28;20440;-66
2023/08/24 06:54:14;;;;;;;1.88;1.40;;;27.00;68.00;;;;;;5054017;28;20029;-66
2023/08/24 06:56:41;;;;;;;1.95;1.33;;;27.10;67.80;;;;;;5054113;28;20037;-66
2023/08/24 06:59:07;;;;;;;2.42;1.83;;;27.30;67.50;;;;;;5054361;28;20079;-66
2023/08/24 07:01:33;;;;;;;2.25;1.48;;;27.40;67.00;;;;;;5052904;28;20048;-63
2023/08/24 07:03:59;;;;;;;2.25;1.45;;;27.50;66.50;;;;;;5054453;28;20363;-66
2023/08/24 07:06:25;;;;;;;2.47;1.65;;;27.60;66.20;;;;;;5052498;28;20090;-66
2023/08/24 07:08:51;;;;;;;0.88;0.75;;;27.80;65.70;;;;;;5053951;28;20037;-65
2023/08/24 07:11:17;;;;;;;4.15;2.03;;;28.00;65.70;;;;;;5053130;28;20041;-66
2023/08/24 07:13:43;;;;;;;2.60;1.27;;;28.30;65.20;;;;;;5054029;28;20051;-66
2023/08/24 07:16:09;;;;;;;2.80;2.22;;;28.60;64.80;;;;;;5052422;28;20132;-62
2023/08/24 07:18:35;;;;;;;3.75;1.92;;;28.90;62.80;;;;;;5053848;28;20059;-66
2023/08/24 07:21:01;;;;;;;2.47;1.77;;;29.30;63.00;;;;;;5052822;28;20033;-66
2023/08/24 07:23:28;;;;;;;3.53;2.25;;;29.70;61.80;;;;;;5053551;28;20563;-62
2023/08/24 07:25:54;;;;;;;1.27;0.85;;;30.10;60.50;;;;;;5053388;28;20701;-66
2023/08/24 07:28:20;;;;;;;2.22;1.30;;;30.40;60.00;;;;;;5053629;28;20041;-66
2023/08/24 07:30:46;;;;;;;1.45;0.98;;;30.80;58.30;;;;;;5052923;28;20457;-62
2023/08/24 07:33:12;;;;;;;1.60;1.20;;;31.10;57.80;;;;;;5052300;28;20029;-62
2023/08/24 07:35:39;;;;;;;1.60;1.10;;;31.50;56.00;;;;;;5053110;28;20086;-66
2023/08/24 07:38:05;;;;;;;2.33;1.98;;;31.80;54.40;;;;;;5053527;28;20031;-63
2023/08/24 07:40:31;;;;;;;2.30;1.20;;;32.20;54.00;;;;;;5052008;28;20054;-62
2023/08/24 07:42:57;;;;;;;2.10;1.27;;;32.70;52.70;;;;;;5052414;28;20029;-65
2023/08/24 07:45:23;;;;;;;3.97;1.75;;;33.10;49.40;;;;;;5052973;28;20410;-66
2023/08/24 07:47:50;;;;;;;0.80;0.75;;;33.50;49.70;;;;;;5053138;28;20037;-67
2023/08/24 07:50:16;;;;;;;3.72;1.55;;;34.00;48.80;;;;;;5052044;28;20029;-67
2023/08/24 07:52:42;;;;;;;2.63;1.48;;;34.50;48.00;;;;;;5060051;28;20072;-67
2023/08/24 07:55:09;;;;;;;3.08;1.67;;;34.90;46.00;;;;;;5041163;28;20048;-65
2023/08/24 07:57:54;;;;;;;2.58;1.80;;;35.40;45.30;;;;;;5042003;28;20371;-64
2023/08/24 08:00:20;;;;;;;2.17;1.58;;;35.90;43.30;;;;;;5070695;28;20079;-65
2023/08/24 08:02:49;;;;;;;2.83;1.85;;;36.50;42.30;;;;;;5071777;28;20033;-67
2023/08/24 08:05:15;;;;;;;2.22;1.75;;;36.90;40.00;;;;;;5072275;28;20059;-65
2023/08/24 08:07:41;;;;;;;3.20;1.27;;;37.30;39.30;;;;;;5060706;28;20039;-67
2023/08/24 08:10:08;;;;;;;3.38;1.77;;;37.70;38.40;;;;;;5060716;28;20033;-65
2023/08/24 08:12:35;;;;;;;3.28;1.90;;;38.20;37.10;;;;;;5051160;28;20119;-65
2023/08/24 08:15:02;;;;;;;4.82;1.80;;;38.70;35.80;;;;;;5071573;28;20042;-68
2023/08/24 08:17:30;;;;;;;1.77;1.42;;;39.20;35.00;;;;;;5071072;28;20043;-67
2023/08/24 08:19:56;;;;;;;1.02;0.93;;;39.80;33.60;;;;;;5072525;28;20036;-65
2023/08/24 08:22:23;;;;;;;1.45;1.00;;;40.10;31.90;;;;;;5061723;28;20041;-68
2023/08/24 08:24:50;;;;;;;2.20;1.83;;;40.50;31.10;;;;;;5059738;28;20469;-68
2023/08/24 08:27:16;;;;;;;1.08;0.88;;;41.00;30.70;;;;;;5070834;28;20040;-65
2023/08/24 08:29:42;;;;;;;2.35;1.52;;;41.50;29.80;;;;;;5069904;28;20480;-68
2023/08/24 08:32:11;;;;;;;2.53;1.88;;;41.90;29.10;;;;;;5064795;28;20379;-67
2023/08/24 08:34:37;;;;;;;2.17;1.50;;;42.10;28.40;;;;;;5052313;28;20052;-65
2023/08/24 08:37:03;;;;;;;1.55;0.95;;;42.60;28.20;;;;;;5060328;28;20045;-64
2023/08/24 08:39:32;;;;;;;1.45;1.10;;;42.70;26.10;;;;;;5051814;28;20033;-68
2023/08/24 08:41:58;;;;;;;1.20;1.10;;;43.00;27.20;;;;;;5051243;28;20049;-64
2023/08/24 08:44:31;;;;;;;2.05;1.70;;;43.50;26.90;;;;;;5051080;28;20033;-64
2023/08/24 08:46:58;;;;;;;1.70;1.27;;;43.90;26.50;;;;;;5050636;28;20099;-67
2023/08/24 08:49:24;;;;;;;1.73;1.40;;;44.30;25.90;;;;;;5051978;28;20072;-64
2023/08/24 08:51:51;;;;;;;1.90;1.40;;;44.80;24.80;;;;;;5049347;28;20041;-67
2023/08/24 08:54:18;;;;;;;1.15;1.02;;;45.00;24.90;;;;;;5050831;28;20518;-65
2023/08/24 08:56:44;;;;;;;1.63;1.33;;;45.40;24.40;;;;;;5051956;28;20052;-68
2023/08/24 08:59:14;;;;;;;2.13;1.23;;;45.70;23.30;;;;;;5050931;28;20131;-64
2023/08/24 09:01:41;;;;;;;1.90;1.45;;;45.90;22.70;;;;;;5049652;28;20123;-67
2023/08/24 09:04:08;;;;;;;1.42;1.30;;;45.90;22.90;;;;;;5051993;28;20037;-67
2023/08/24 09:06:34;;;;;;;1.75;1.40;;;46.30;22.40;;;;;;5051708;28;20045;-64
2023/08/24 09:09:05;;;;;;;1.48;1.27;;;46.30;21.80;;;;;;5050507;28;20044;-64
2023/08/24 09:11:31;;;;;;;2.10;1.65;;;46.40;21.30;;;;;;5049445;28;20041;-64
2023/08/24 09:13:57;;;;;;;1.75;1.63;;;46.50;21.40;;;;;;5051737;28;20597;-64
2023/08/24 09:16:29;;;;;;;1.58;1.33;;;46.90;20.40;;;;;;5051395;28;20040;-68
2023/08/24 09:18:55;;;;;;;3.85;2.22;;;47.50;20.60;;;;;;5050602;28;20041;-68
2023/08/24 09:21:23;;;;;;;2.33;1.90;;;47.70;20.30;;;;;;5050595;28;20060;-68
2023/08/24 09:24:08;;;;;;;3.15;1.92;;;48.00;20.00;;;;;;5050353;28;20033;-67
2023/08/24 09:26:42;;;;;;;2.35;1.75;;;48.40;19.10;;;;;;5051478;28;20040;-65
2023/08/24 09:29:27;;;;;;;1.85;1.58;;;48.40;19.00;;;;;;5051728;28;20120;-64
2023/08/24 09:31:53;;;;;;;3.05;1.98;;;48.60;19.00;;;;;;5050485;28;20036;-68
2023/08/24 09:34:21;;;;;;;2.28;2.00;;;48.70;19.10;;;;;;5050217;28;20025;-67
2023/08/24 09:36:47;;;;;;;2.20;1.88;;;49.40;19.20;;;;;;5050903;28;20391;-65
2023/08/24 09:39:17;;;;;;;2.00;1.83;;;49.80;18.60;;;;;;5050269;28;20083;-67
2023/08/24 09:42:03;;;;;;;1.65;1.35;;;50.30;17.90;;;;;;5049187;28;20128;-64
2023/08/24 09:44:29;;;;;;;2.17;1.77;;;50.70;17.20;;;;;;5051472;28;20077;-67
2023/08/24 09:46:55;;;;;;;2.67;1.70;;;51.00;17.30;;;;;;5051209;28;20064;-67
2023/08/24 09:49:21;;;;;;;4.45;2.45;;;51.10;17.00;;;;;;5062521;28;20087;-65
2023/08/24 09:51:49;;;;;;;1.85;1.55;;;51.20;16.50;;;;;;5070372;28;20037;-67
2023/08/24 09:54:18;;;;;;;1.63;1.48;;;51.40;16.90;;;;;;5070159;28;20083;-65
2023/08/24 09:56:48;;;;;;;2.88;2.45;;;51.90;16.30;;;;;;5052314;28;20389;-65
2023/08/24 09:59:21;;;;;;;2.88;2.40;;;52.50;15.90;;;;;;5061106;28;20043;-64
2023/08/24 10:01:50;;;;;;;3.22;2.45;;;52.60;15.20;;;;;;5069101;28;20932;-67
2023/08/24 10:04:23;;;;;;;2.80;2.45;;;53.00;15.70;;;;;;5073810;28;20028;-68
2023/08/24 10:06:56;;;;;;;2.20;1.95;;;53.10;15.80;;;;;;5063894;28;20029;-65
2023/08/24 10:09:32;;;;;;;2.53;2.05;;;53.40;15.60;;;;;;5054029;28;20037;-67
2023/08/24 10:12:02;;;;;;;2.90;2.60;;;53.80;15.50;;;;;;5055237;28;20124;-64
2023/08/24 10:14:56;;;;;;;3.40;3.08;;;53.90;14.90;;;;;;5053803;28;20402;-67
2023/08/24 10:17:24;;;;;;;3.63;2.67;;;54.20;15.10;;;;;;5053252;28;20044;-68
2023/08/24 10:19:53;;;;;;;3.28;2.97;;;54.30;15.10;;;;;;5053756;28;20395;-67
2023/08/24 10:22:20;;;;;;;2.95;2.58;;;54.40;15.00;;;;;;5052406;28;20037;-67
2023/08/24 10:24:48;;;;;;;3.22;2.92;;;54.80;14.80;;;;;;5054760;28;20052;-65
2023/08/24 10:27:16;;;;;;;4.32;3.47;;;55.20;14.70;;;;;;5054385;28;20037;-68
2023/08/24 10:29:42;;;;;;;9.13;3.55;;;55.40;14.30;;;;;;5053555;28;20033;-67
2023/08/24 10:32:09;;;;;;;3.42;3.13;;;55.40;14.40;;;;;;5053051;28;20087;-67
2023/08/24 10:34:36;;;;;;;3.60;3.28;;;55.50;13.50;;;;;;5057027;28;20081;-65
2023/08/24 10:37:39;;;;;;;4.20;3.65;;;55.60;14.10;;;;;;5069050;28;20055;-65
2023/08/24 10:40:07;;;;;;;4.00;3.38;;;56.10;13.30;;;;;;5071267;28;20028;-65
2023/08/24 10:42:46;;;;;;;4.32;3.92;;;56.30;13.90;;;;;;5053180;28;20033;-64
2023/08/24 10:45:15;;;;;;;3.33;3.03;;;56.50;13.40;;;;;;5052632;28;20399;-67
2023/08/24 10:48:01;;;;;;;4.45;4.05;;;56.90;13.10;;;;;;5065296;28;20064;-65
2023/08/24 10:50:28;;;;;;;4.20;3.80;;;57.40;12.30;;;;;;5072833;28;20040;-67
2023/08/24 10:52:54;;;;;;;4.75;4.35;;;57.60;12.90;;;;;;5073160;28;20036;-65
2023/08/24 10:55:27;;;;;;;4.80;4.40;;;57.60;12.80;;;;;;5065145;28;20066;-64
2023/08/24 10:58:17;;;;;;;5.10;4.60;;;57.90;12.00;;;;;;5060589;28;20029;-67
2023/08/24 11:00:49;;;;;;;4.15;3.75;;;57.70;12.50;;;;;;5043096;28;20029;-66
2023/08/24 11:03:50;;;;;;;4.85;4.45;;;57.80;12.20;;;;;;5068776;28;20067;-65
2023/08/24 11:06:51;;;;;;;5.30;4.90;;;57.90;12.40;;;;;;5064579;28;20095;-65
2023/08/24 11:09:17;;;;;;;5.47;4.93;;;58.00;13.00;;;;;;5066378;28;20040;-67
2023/08/24 11:12:14;;;;;;;6.32;5.72;;;57.90;12.70;;;;;;5057140;28;20041;-65
2023/08/24 11:14:59;;;;;;;6.60;6.10;;;58.10;13.00;;;;;;5065885;28;20557;-67
2023/08/24 11:17:31;;;;;;;5.38;4.93;;;58.40;13.00;;;;;;5070377;28;20087;-67
2023/08/24 11:19:58;;;;;;;6.70;6.10;;;58.60;12.70;;;;;;5072631;28;20104;-64
2023/08/24 11:22:26;;;;;;;5.75;5.22;;;58.50;12.70;;;;;;5071419;28;20115;-67
2023/08/24 11:24:51;;;;;;;5.13;4.72;;;59.10;13.20;;;;;;5073547;28;20029;-64
2023/08/24 11:27:20;;;;;;;6.20;5.70;;;59.10;13.20;;;;;;5070746;28;20032;-67
2023/08/24 11:29:47;;;;;;;7.03;6.53;;;59.20;13.00;;;;;;5061064;28;20120;-66
2023/08/24 11:32:13;;;;;;;7.15;6.65;;;59.70;12.70;;;;;;5071914;28;20040;-64
2023/08/24 11:34:39;;;;;;;6.88;6.38;;;59.80;12.60;;;;;;5073652;28;20028;-65
2023/08/24 11:37:05;;;;;;;7.63;7.13;;;59.80;12.30;;;;;;5064899;28;20051;-67
2023/08/24 11:39:32;;;;;;;7.10;6.60;;;59.80;12.10;;;;;;5064531;28;20032;-65
2023/08/24 11:42:16;;;;;;;7.45;6.95;;;59.50;12.50;;;;;;5072319;28;20040;-64
2023/08/24 11:45:01;;;;;;;8.75;8.15;;;59.60;12.50;;;;;;5069455;28;20081;-65
2023/08/24 11:47:29;;;;;;;7.75;7.25;;;59.80;12.40;;;;;;5043242;28;20378;-64
2023/08/24 11:49:55;;;;;;;9.13;8.52;;;60.20;12.30;;;;;;5061703;28;20032;-66
2023/08/24 11:52:21;;;;;;;7.78;7.18;;;60.10;12.00;;;;;;5071884;28;20032;-68
2023/08/24 11:54:47;;;;;;;7.65;7.15;;;60.30;12.10;;;;;;5072938;28;20029;-65
2023/08/24 11:57:13;;;;;;;7.65;7.15;;;60.30;12.20;;;;;;5067377;28;20033;-64
2023/08/24 11:59:40;;;;;;;10.18;9.48;;;60.40;11.80;;;;;;5071371;28;20560;-66
2023/08/24 12:02:06;;;;;;;9.13;8.52;;;60.50;11.30;;;;;;5070799;28;20268;-67
2023/08/24 12:04:51;;;;;;;9.77;9.05;;;60.70;11.30;;;;;;5072899;28;20524;-67
2023/08/24 12:07:18;;;;;;;9.70;9.05;;;60.40;12.20;;;;;;5072365;28;20554;-66
2023/08/24 12:09:46;;;;;;;9.45;8.85;;;60.70;11.70;;;;;;5072890;28;20028;-67
2023/08/24 12:12:16;;;;;;;8.10;7.60;;;61.00;12.10;;;;;;5070546;28;20090;-68
2023/08/24 12:14:47;;;;;;;9.43;8.82;;;60.90;11.80;;;;;;5069981;28;20027;-67
2023/08/24 12:17:16;;;;;;;8.45;7.85;;;61.10;11.40;;;;;;5071011;28;20033;-64
2023/08/24 12:19:44;;;;;;;9.45;8.85;;;60.70;11.60;;;;;;5071327;28;20516;-67
2023/08/24 12:22:30;;;;;;;10.30;9.63;;;60.70;11.70;;;;;;5070425;28;20040;-67
2023/08/24 12:24:57;;;;;;;9.85;9.25;;;61.10;10.90;;;;;;5072661;28;20025;-67
2023/08/24 12:27:26;;;;;;;9.00;8.40;;;61.10;11.00;;;;;;5070999;28;20397;-65
2023/08/24 12:29:52;;;;;;;10.32;9.73;;;60.80;11.20;;;;;;5071273;28;20041;-65
2023/08/24 12:32:23;;;;;;;9.60;9.00;;;61.20;11.60;;;;;;5071483;28;20067;-64
2023/08/24 12:34:51;;;;;;;11.60;10.80;;;61.00;11.80;;;;;;5071312;28;20033;-68
2023/08/24 12:37:18;;;;;;;8.77;8.18;;;60.70;11.20;;;;;;5070841;28;20063;-64
2023/08/24 12:39:44;;;;;;;10.00;9.40;;;60.10;12.00;;;;;;5054510;28;20477;-67
2023/08/24 12:42:10;;;;;;;9.35;8.68;;;60.30;12.50;;;;;;5069773;28;20036;-66
2023/08/24 12:44:36;;;;;;;8.65;8.05;;;60.70;12.20;;;;;;5070794;28;20070;-65
2023/08/24 12:47:03;;;;;;;9.40;8.80;;;61.00;12.00;;;;;;5071614;28;20425;-68
2023/08/24 12:49:29;;;;;;;9.50;8.90;;;61.00;11.70;;;;;;5070868;28;20041;-65
2023/08/24 12:51:55;;;;;;;10.35;9.65;;;61.60;11.90;;;;;;5071169;28;20045;-65
2023/08/24 12:54:21;;;;;;;10.80;10.10;;;61.80;11.50;;;;;;5070874;28;20028;-68
2023/08/24 12:56:47;;;;;;;11.15;10.45;;;61.80;11.40;;;;;;5071713;28;20074;-68